Time;durP1;ratioP1;P1;durP2;ratioP2;P2;SDS_P1;SDS_P2;PMS_P1;PMS_P2;Temp;Humidity;BMP_temperature;BMP_pressure;BME280_temperature;BME280_humidity;BME280_pressure;Samples;Min_cycle;Max_cycle;Signal;HPM_P1;HPM_P2
2022/01/21 00:01:44;;;;;;;6.70;0.85;;;;;;;6.42;60.11;103529.03;7387441;19;20038;-67
2022/01/21 00:04:11;;;;;;;7.65;0.75;;;;;;;6.44;59.22;103537.69;7392272;19;20011;-66
2022/01/21 00:06:39;;;;;;;6.28;1.10;;;;;;;6.43;58.87;103525.50;7388310;19;20007;-66
2022/01/21 00:09:07;;;;;;;9.13;0.73;;;;;;;6.40;59.42;103528.22;7385030;19;20014;-66
2022/01/21 00:11:36;;;;;;;9.18;0.98;;;;;;;6.32;59.02;103531.16;7390052;19;20019;-67
2022/01/21 00:14:03;;;;;;;8.15;1.00;;;;;;;6.27;59.91;103525.25;7387463;19;20018;-67
2022/01/21 00:16:30;;;;;;;5.10;0.80;;;;;;;6.24;59.23;103538.44;7392328;19;20468;-65
2022/01/21 00:19:14;;;;;;;3.53;0.77;;;;;;;6.19;59.86;103526.44;7389495;19;20032;-68
2022/01/21 00:32:10;;;;;;;5.78;0.88;;;;;;;6.07;60.84;103529.50;7389701;19;20010;-67
2022/01/21 00:34:36;;;;;;;5.63;0.80;;;;;;;5.97;60.92;103529.84;7388005;19;20010;-66
2022/01/21 00:37:03;;;;;;;12.50;0.65;;;;;;;5.96;61.09;103529.91;7388506;19;20021;-65
2022/01/21 00:39:32;;;;;;;4.20;0.80;;;;;;;5.94;61.65;103531.72;7387975;19;20017;-67
2022/01/21 00:44:30;;;;;;;7.57;2.08;;;;;;;5.87;61.83;103525.88;7390977;19;20015;-66
2022/01/21 00:46:57;;;;;;;5.88;1.77;;;;;;;5.83;61.29;103521.63;7394254;19;20042;-67
2022/01/21 00:49:24;;;;;;;4.03;0.80;;;;;;;5.80;61.80;103515.66;7396179;19;20364;-67
2022/01/21 00:51:51;;;;;;;10.60;0.63;;;;;;;5.81;61.36;103510.38;7394819;19;20007;-67
2022/01/21 00:54:18;;;;;;;5.85;0.73;;;;;;;5.79;61.50;103517.41;7395871;19;20338;-67
2022/01/21 00:56:45;;;;;;;5.07;0.70;;;;;;;5.75;61.33;103525.41;7398859;19;20021;-67
2022/01/21 00:59:12;;;;;;;3.72;0.90;;;;;;;5.75;61.35;103520.19;7400180;19;20031;-66
2022/01/21 01:01:40;;;;;;;6.20;0.80;;;;;;;5.71;62.46;103526.44;7394146;19;20479;-65
2022/01/21 01:04:08;;;;;;;9.38;1.15;;;;;;;5.69;62.28;103516.03;7395651;19;20010;-68
2022/01/21 01:06:35;;;;;;;9.88;1.30;;;;;;;5.66;62.23;103507.47;7398136;19;20018;-66
2022/01/21 01:09:02;;;;;;;7.63;1.50;;;;;;;5.65;61.84;103514.44;7392224;19;20330;-66
2022/01/21 01:22:00;;;;;;;4.85;1.40;;;;;;;5.54;63.49;103506.97;7393423;19;20003;-66
2022/01/21 01:29:39;;;;;;;5.82;1.00;;;;;;;5.51;62.59;103507.09;7392347;19;20058;-67
2022/01/21 01:32:07;;;;;;;11.65;1.27;;;;;;;5.51;63.19;103508.84;7392924;19;20084;-66
2022/01/21 01:34:34;;;;;;;7.72;1.20;;;;;;;5.49;63.50;103508.91;7393660;19;20351;-67
2022/01/21 01:37:07;;;;;;;8.45;1.58;;;;;;;5.47;63.24;103504.66;7397567;19;20015;-66
2022/01/21 01:39:42;;;;;;;4.82;1.10;;;;;;;5.48;62.53;103502.00;7392291;19;20014;-66
2022/01/21 01:49:48;;;;;;;13.73;3.17;;;;;;;5.34;64.49;103491.16;7392687;19;20557;-66
2022/01/21 01:52:17;;;;;;;13.20;5.75;;;;;;;5.31;64.44;103483.44;7395669;19;20106;-67
2022/01/21 01:54:48;;;;;;;29.10;9.90;;;;;;;5.34;65.22;103474.63;7392604;19;20007;-67
2022/01/21 01:57:15;;;;;;;16.63;4.43;;;;;;;5.35;64.08;103477.22;7393595;19;20034;-66
2022/01/21 01:59:42;;;;;;;4.47;1.52;;;;;;;5.38;63.22;103473.66;7394553;19;20329;-66
2022/01/21 02:02:12;;;;;;;9.95;0.90;;;;;;;5.35;62.79;103468.53;7392011;19;20030;-71
2022/01/21 02:04:42;;;;;;;9.75;1.25;;;;;;;5.34;62.99;103461.59;7391366;19;20078;-65
2022/01/21 02:07:09;;;;;;;5.75;0.85;;;;;;;5.30;63.76;103465.22;7391302;19;20506;-67
2022/01/21 02:09:37;;;;;;;5.57;1.00;;;;;;;5.27;63.62;103465.34;7392906;19;20011;-67
2022/01/21 02:12:05;;;;;;;6.82;0.80;;;;;;;5.27;63.89;103463.59;7391239;19;20011;-68
2022/01/21 02:14:38;;;;;;;5.28;1.20;;;;;;;5.23;64.23;103462.00;7391008;19;20018;-67
2022/01/21 02:17:15;;;;;;;3.97;0.85;;;;;;;5.21;64.90;103462.94;7396768;19;20010;-67
2022/01/21 02:22:20;;;;;;;3.75;0.70;;;;;;;5.18;63.83;103452.63;7391390;19;20688;-66
2022/01/21 02:27:14;;;;;;;5.60;0.90;;;;;;;5.13;64.69;103468.41;7392629;19;20015;-66
2022/01/21 02:29:48;;;;;;;5.38;0.93;;;;;;;5.07;64.80;103472.09;7390681;19;20014;-66
2022/01/21 02:32:16;;;;;;;4.13;0.88;;;;;;;5.06;64.95;103467.78;7391406;19;20472;-66
2022/01/21 02:34:44;;;;;;;9.55;1.00;;;;;;;5.06;64.94;103472.13;7393045;19;20017;-67
2022/01/21 02:37:15;;;;;;;17.80;8.02;;;;;;;5.06;64.64;103480.81;7391823;19;20010;-67
2022/01/21 02:39:42;;;;;;;8.40;3.65;;;;;;;5.07;64.52;103487.75;7390577;19;20526;-66
2022/01/21 02:42:10;;;;;;;10.95;2.97;;;;;;;5.07;65.75;103485.13;7390336;19;20026;-67
2022/01/21 02:44:38;;;;;;;2.92;1.00;;;;;;;5.06;65.51;103493.88;7396210;19;20010;-68
2022/01/21 02:47:07;;;;;;;5.35;0.90;;;;;;;5.07;65.00;103487.75;7392170;19;20046;-68
2022/01/21 02:49:35;;;;;;;5.63;1.20;;;;;;;5.10;65.78;103477.19;7392035;19;20035;-67
2022/01/21 02:52:03;;;;;;;5.95;0.80;;;;;;;5.12;65.40;103482.38;7391351;19;20368;-66
2022/01/21 02:54:33;;;;;;;8.27;1.35;;;;;;;5.08;64.91;103484.22;7388999;19;20007;-67
2022/01/21 02:57:03;;;;;;;4.53;1.08;;;;;;;5.06;64.82;103487.78;7390632;19;20613;-66
2022/01/21 02:59:30;;;;;;;3.35;0.70;;;;;;;5.04;66.04;103494.81;7394264;19;20042;-67
2022/01/21 03:01:58;;;;;;;3.17;0.88;;;;;;;4.98;65.68;103488.03;7390037;19;20007;-65
2022/01/21 03:04:37;;;;;;;6.40;0.95;;;;;;;4.98;65.00;103503.69;7392956;19;20380;-66
2022/01/21 03:07:05;;;;;;;5.00;0.90;;;;;;;4.93;65.75;103502.97;7387384;19;20006;-66
2022/01/21 03:09:32;;;;;;;6.85;1.67;;;;;;;4.93;66.26;103509.94;7390908;19;20014;-67
2022/01/21 03:11:59;;;;;;;7.93;1.60;;;;;;;4.88;66.36;103506.63;7394280;19;20034;-66
2022/01/21 03:14:26;;;;;;;5.82;1.70;;;;;;;4.83;66.79;103512.00;7391017;19;20479;-66
2022/01/21 03:16:53;;;;;;;7.53;0.85;;;;;;;4.81;67.22;103512.97;7390829;19;20011;-65
2022/01/21 03:19:20;;;;;;;6.07;1.00;;;;;;;4.80;67.87;103516.47;7390383;19;20010;-66
2022/01/21 03:21:47;;;;;;;4.43;0.90;;;;;;;4.78;67.89;103513.91;7393674;19;20032;-68
2022/01/21 03:24:15;;;;;;;5.82;1.30;;;;;;;4.76;66.88;103520.94;7390954;19;20480;-68
2022/01/21 03:26:46;;;;;;;6.13;1.00;;;;;;;4.76;66.80;103517.47;7389950;19;20007;-67
2022/01/21 03:29:13;;;;;;;6.20;0.95;;;;;;;4.76;67.40;103510.50;7388376;19;20027;-67
2022/01/21 03:31:41;;;;;;;5.07;1.17;;;;;;;4.77;66.64;103507.00;7392113;19;20019;-67
2022/01/21 03:34:08;;;;;;;8.35;0.85;;;;;;;4.78;66.29;103505.22;7389021;19;20018;-65
2022/01/21 03:36:38;;;;;;;5.25;0.93;;;;;;;4.76;66.13;103509.66;7393500;19;20022;-66
2022/01/21 03:39:06;;;;;;;4.10;0.90;;;;;;;4.74;66.84;103502.72;7388759;19;20003;-67
2022/01/21 03:41:36;;;;;;;5.85;0.90;;;;;;;4.73;67.97;103515.81;7388913;19;20066;-70
2022/01/21 03:44:06;;;;;;;7.50;1.02;;;;;;;4.73;67.03;103513.19;7392816;19;20023;-67
2022/01/21 03:46:34;;;;;;;6.53;1.40;;;;;;;4.74;67.98;103525.34;7389565;19;20007;-67
2022/01/21 03:49:07;;;;;;;6.75;1.23;;;;;;;4.75;68.72;103534.88;7387369;19;20014;-66
2022/01/21 03:51:34;;;;;;;7.35;1.50;;;;;;;4.77;70.89;103537.44;7386219;19;20006;-67
2022/01/21 03:54:02;;;;;;;6.68;2.40;;;;;;;4.75;70.18;103529.66;7394185;19;20019;-67
2022/01/21 03:56:29;;;;;;;5.78;0.80;;;;;;;4.75;68.43;103524.44;7392559;19;20126;-68
2022/01/21 03:58:57;;;;;;;5.25;0.85;;;;;;;4.67;66.55;103516.84;7390434;19;20014;-66
2022/01/21 04:01:25;;;;;;;5.57;1.52;;;;;;;4.69;68.29;103520.28;7387957;19;20006;-66
2022/01/21 04:03:53;;;;;;;6.03;1.35;;;;;;;4.68;67.46;103517.69;7390800;19;20025;-67
2022/01/21 04:06:20;;;;;;;5.55;1.00;;;;;;;4.67;66.62;103505.59;7390312;19;20478;-67
2022/01/21 04:08:48;;;;;;;3.50;0.80;;;;;;;4.63;66.56;103510.03;7390300;19;20063;-67
2022/01/21 04:11:15;;;;;;;4.97;0.90;;;;;;;4.64;66.86;103503.91;7386747;19;20498;-66
2022/01/21 04:13:43;;;;;;;6.30;1.10;;;;;;;4.64;66.71;103510.88;7389671;19;20006;-67
2022/01/21 04:16:10;;;;;;;9.85;1.65;;;;;;;4.60;67.02;103502.31;7388165;19;20021;-68
2022/01/21 04:18:37;;;;;;;8.02;1.30;;;;;;;4.62;68.18;103497.88;7389145;19;20014;-67
2022/01/21 04:21:05;;;;;;;5.68;1.90;;;;;;;4.62;67.41;103502.28;7390383;19;20014;-66
2022/01/21 04:23:32;;;;;;;5.55;1.33;;;;;;;4.59;68.10;103491.94;7389825;19;20078;-66
2022/01/21 04:25:59;;;;;;;6.07;1.45;;;;;;;4.59;69.62;103486.72;7387203;19;20211;-67
2022/01/21 04:28:26;;;;;;;5.82;1.02;;;;;;;4.56;68.16;103497.25;7389427;19;20017;-67
2022/01/21 04:30:53;;;;;;;4.25;0.90;;;;;;;4.55;67.82;103501.59;7387612;19;20750;-70
2022/01/21 04:33:21;;;;;;;5.60;1.20;;;;;;;4.53;67.86;103505.16;7388014;19;20392;-67
2022/01/21 04:35:49;;;;;;;7.47;1.13;;;;;;;4.52;67.76;103506.06;7389453;19;20031;-67
2022/01/21 04:38:20;;;;;;;6.95;1.30;;;;;;;4.51;67.58;103510.44;7385951;19;20018;-66
2022/01/21 04:40:57;;;;;;;4.72;0.90;;;;;;;4.50;68.13;103520.88;7385465;19;20019;-67
2022/01/21 04:48:38;;;;;;;6.05;1.15;;;;;;;4.52;67.88;103524.31;7387538;19;20359;-67
2022/01/21 04:53:45;;;;;;;4.82;1.63;;;;;;;4.51;68.50;103515.63;7391086;19;20006;-67
2022/01/21 04:56:12;;;;;;;8.25;1.27;;;;;;;4.54;69.04;103515.53;7387523;19;20011;-66
2022/01/21 04:58:40;;;;;;;4.57;1.42;;;;;;;4.54;68.24;103514.69;7389780;19;21275;-67
2022/01/21 05:01:09;;;;;;;3.38;0.93;;;;;;;4.56;68.47;103520.72;7385284;19;20034;-68
2022/01/21 05:03:39;;;;;;;3.42;0.70;;;;;;;4.57;68.86;103522.41;7390786;19;20357;-66
2022/01/21 05:06:09;;;;;;;5.30;0.80;;;;;;;4.55;68.62;103517.25;7390647;19;20011;-66
2022/01/21 05:11:17;;;;;;;5.47;1.13;;;;;;;4.54;68.32;103501.66;7388696;19;20332;-67
2022/01/21 05:13:55;;;;;;;4.75;1.02;;;;;;;4.55;68.72;103504.22;7388355;19;20194;-67
2022/01/21 05:18:56;;;;;;;7.40;2.60;;;;;;;4.55;70.27;103508.56;7384029;19;20006;-66
2022/01/21 05:21:23;;;;;;;7.93;2.60;;;;;;;4.54;70.26;103512.94;7387037;19;20363;-66
2022/01/21 05:23:50;;;;;;;12.65;3.67;;;;;;;4.55;71.07;103516.38;7387385;19;20011;-66
2022/01/21 05:26:18;;;;;;;8.65;1.35;;;;;;;4.53;71.59;103521.63;7387548;19;20314;-67
2022/01/21 05:28:45;;;;;;;6.25;1.20;;;;;;;4.49;70.08;103517.44;7386629;19;20100;-66
2022/01/21 05:31:12;;;;;;;6.75;1.50;;;;;;;4.47;69.64;103510.56;7390796;19;20015;-67
2022/01/21 05:33:39;;;;;;;4.40;0.70;;;;;;;4.48;69.66;103515.72;7394998;19;20312;-66
2022/01/21 05:36:06;;;;;;;6.57;1.38;;;;;;;4.47;69.64;103511.41;7393108;19;20038;-66
2022/01/21 05:38:33;;;;;;;6.57;1.05;;;;;;;4.47;69.89;103503.56;7390184;19;20023;-66
2022/01/21 05:41:00;;;;;;;5.10;1.25;;;;;;;4.46;69.53;103509.72;7392643;19;20042;-66
2022/01/21 05:43:28;;;;;;;7.78;1.15;;;;;;;4.48;69.48;103501.81;7393228;19;20010;-66
2022/01/21 05:48:32;;;;;;;4.38;1.17;;;;;;;4.41;69.18;103503.78;7392098;19;20022;-67
2022/01/21 05:50:59;;;;;;;4.80;1.10;;;;;;;4.40;70.66;103506.44;7390112;19;20006;-66
2022/01/21 05:53:26;;;;;;;6.90;1.13;;;;;;;4.37;70.23;103506.53;7394620;19;20015;-66
2022/01/21 05:56:00;;;;;;;4.85;1.00;;;;;;;4.36;71.08;103503.06;7393265;19;20034;-66
2022/01/21 05:58:27;;;;;;;7.55;1.88;;;;;;;4.37;70.89;103506.53;7396701;19;20018;-66
2022/01/21 06:00:55;;;;;;;5.60;1.17;;;;;;;4.35;72.25;103506.56;7391809;19;20017;-66
2022/01/21 06:03:22;;;;;;;6.38;1.17;;;;;;;4.33;71.57;103513.56;7393561;19;20587;-65
2022/01/21 06:05:51;;;;;;;6.95;1.52;;;;;;;4.30;70.49;103503.25;7393881;19;20036;-66
2022/01/21 06:08:19;;;;;;;6.15;1.48;;;;;;;4.36;73.10;103505.69;7391995;19;20429;-68
2022/01/21 06:10:46;;;;;;;4.60;1.10;;;;;;;4.37;74.17;103507.38;7390679;19;20483;-67
2022/01/21 06:13:16;;;;;;;5.47;1.17;;;;;;;4.35;74.50;103510.94;7391040;19;20559;-66
2022/01/21 06:15:44;;;;;;;4.32;1.90;;;;;;;4.30;73.09;103511.94;7392944;19;20206;-66
2022/01/21 06:18:11;;;;;;;4.93;1.00;;;;;;;4.32;74.26;103509.25;7391339;19;20486;-66
2022/01/21 06:20:39;;;;;;;6.20;1.42;;;;;;;4.33;73.08;103521.38;7394326;19;20017;-66
2022/01/21 06:23:06;;;;;;;9.73;1.38;;;;;;;4.29;72.62;103518.03;7392567;19;20034;-66
2022/01/21 06:25:34;;;;;;;8.45;2.67;;;;;;;4.30;73.81;103517.13;7394381;19;20021;-67
2022/01/21 06:28:01;;;;;;;5.95;1.40;;;;;;;4.29;72.52;103519.78;7392875;19;20030;-66
2022/01/21 06:30:28;;;;;;;4.57;1.90;;;;;;;4.27;71.65;103517.22;7391806;19;20006;-69
2022/01/21 06:32:55;;;;;;;8.52;2.58;;;;;;;4.28;72.55;103520.66;7391502;19;20508;-66
2022/01/21 06:35:24;;;;;;;7.30;2.10;;;;;;;4.27;72.69;103517.22;7392794;19;20896;-66
2022/01/21 06:37:51;;;;;;;7.50;2.75;;;;;;;4.27;72.14;103522.41;7390226;19;20015;-66
2022/01/21 06:40:20;;;;;;;6.32;1.90;;;;;;;4.26;73.62;103527.69;7390795;19;20018;-68
2022/01/21 06:42:49;;;;;;;9.50;3.50;;;;;;;4.25;73.86;103526.84;7387733;19;20010;-66
2022/01/21 06:45:17;;;;;;;9.82;1.52;;;;;;;4.26;74.24;103525.94;7390992;19;20690;-68
2022/01/21 06:47:48;;;;;;;7.28;1.10;;;;;;;4.24;72.31;103532.09;7391449;19;20344;-68
2022/01/21 06:50:21;;;;;;;3.45;1.10;;;;;;;4.22;71.59;103533.88;7392239;19;20034;-68
2022/01/21 06:52:49;;;;;;;4.28;1.20;;;;;;;4.15;71.13;103529.75;7393001;19;20142;-67
2022/01/21 06:55:16;;;;;;;4.88;1.30;;;;;;;4.14;71.41;103541.06;7392672;19;20036;-67
2022/01/21 06:57:44;;;;;;;6.35;1.45;;;;;;;4.11;71.54;103542.03;7391892;19;20371;-65
2022/01/21 07:00:16;;;;;;;6.00;1.15;;;;;;;4.10;71.73;103536.84;7391765;19;20021;-66
2022/01/21 07:02:43;;;;;;;5.10;1.15;;;;;;;4.12;71.79;103542.84;7391909;19;20018;-68
2022/01/21 07:05:11;;;;;;;7.40;1.90;;;;;;;4.12;72.14;103540.25;7390768;19;20046;-67
2022/01/21 07:07:39;;;;;;;6.32;1.52;;;;;;;4.12;72.31;103537.63;7386131;19;20046;-68
2022/01/21 07:10:07;;;;;;;5.63;1.13;;;;;;;4.11;72.06;103535.97;7389087;19;20020;-67
2022/01/21 07:12:35;;;;;;;9.25;1.90;;;;;;;4.10;72.18;103540.31;7390368;19;20052;-66
2022/01/21 07:15:04;;;;;;;4.03;1.17;;;;;;;4.14;72.40;103534.09;7389797;19;20014;-67
2022/01/21 07:17:32;;;;;;;6.53;1.45;;;;;;;4.14;72.14;103528.91;7393670;19;20035;-67
2022/01/21 07:20:03;;;;;;;6.20;1.52;;;;;;;4.14;72.50;103526.28;7389232;19;20019;-67
2022/01/21 07:22:31;;;;;;;10.02;2.03;;;;;;;4.17;73.59;103526.19;7392663;19;20011;-68
2022/01/21 07:25:00;;;;;;;5.85;1.42;;;;;;;4.16;72.95;103536.69;7392072;19;20021;-67
2022/01/21 07:27:28;;;;;;;9.10;2.08;;;;;;;4.17;72.49;103551.38;7393295;19;20014;-66
2022/01/21 07:29:55;;;;;;;14.98;5.32;;;;;;;4.18;74.99;103551.34;7390508;19;20034;-67
2022/01/21 07:32:25;;;;;;;8.77;1.90;;;;;;;4.14;73.56;103554.09;7390421;19;20035;-67
2022/01/21 07:34:53;;;;;;;7.57;1.90;;;;;;;4.13;72.89;103554.97;7391500;19;20006;-67
2022/01/21 07:37:20;;;;;;;9.55;2.15;;;;;;;4.09;72.37;103555.97;7394013;19;20520;-67
2022/01/21 07:39:49;;;;;;;9.93;2.00;;;;;;;4.07;72.81;103545.59;7392907;19;20661;-66
2022/01/21 07:42:16;;;;;;;8.98;1.92;;;;;;;4.03;72.86;103556.13;7393567;19;20018;-68
2022/01/21 07:44:44;;;;;;;6.97;1.90;;;;;;;4.05;72.99;103556.97;7390164;19;20128;-67
2022/01/21 07:47:12;;;;;;;10.18;2.35;;;;;;;4.05;73.32;103554.34;7387965;19;20018;-66
2022/01/21 07:49:42;;;;;;;6.20;1.63;;;;;;;4.05;72.92;103552.63;7387976;19;20006;-67
2022/01/21 07:52:10;;;;;;;8.77;2.20;;;;;;;4.04;72.82;103556.09;7387247;19;20014;-67
2022/01/21 07:54:38;;;;;;;12.23;4.75;;;;;;;4.06;73.24;103543.06;7393821;19;20017;-68
2022/01/21 07:57:16;;;;;;;10.32;2.25;;;;;;;4.04;73.10;103556.09;7394062;19;20010;-66
2022/01/21 07:59:43;;;;;;;9.75;2.55;;;;;;;4.05;73.27;103552.63;7391039;19;20016;-68
2022/01/21 08:02:10;;;;;;;13.13;2.40;;;;;;;4.05;72.94;103563.03;7394628;19;20097;-68
2022/01/21 08:04:38;;;;;;;9.10;2.05;;;;;;;4.06;72.99;103569.09;7390332;19;20089;-67
2022/01/21 08:07:12;;;;;;;8.73;2.00;;;;;;;4.07;72.97;103565.56;7390391;19;20042;-67
2022/01/21 08:09:39;;;;;;;7.28;2.28;;;;;;;4.03;72.87;103569.16;7389849;19;20006;-66
2022/01/21 08:12:07;;;;;;;7.22;1.90;;;;;;;4.04;73.27;103576.09;7391584;19;20010;-66
2022/01/21 08:14:35;;;;;;;6.85;1.70;;;;;;;4.05;73.07;103583.00;7392583;19;20066;-68
2022/01/21 08:17:02;;;;;;;8.45;1.58;;;;;;;4.04;72.92;103578.69;7389596;19;20074;-66
2022/01/21 08:19:29;;;;;;;10.23;2.75;;;;;;;4.06;72.77;103585.59;7389963;19;20015;-68
2022/01/21 08:21:56;;;;;;;10.77;2.55;;;;;;;4.06;72.60;103579.50;7390739;19;20026;-66
2022/01/21 08:24:26;;;;;;;15.85;3.72;;;;;;;4.07;73.07;103589.00;7392882;19;20031;-67
2022/01/21 08:26:53;;;;;;;12.32;2.60;;;;;;;4.10;72.93;103581.13;7390198;19;20018;-68
2022/01/21 08:29:20;;;;;;;13.70;2.55;;;;;;;4.09;73.32;103572.47;7390101;19;20070;-67
2022/01/21 08:31:47;;;;;;;11.80;3.47;;;;;;;4.12;73.16;103580.19;7393482;19;20045;-66
2022/01/21 08:34:15;;;;;;;7.28;2.70;;;;;;;4.11;72.92;103575.88;7390343;19;20010;-68
2022/01/21 08:36:43;;;;;;;10.73;2.42;;;;;;;4.14;73.00;103578.41;7394902;19;20010;-66
2022/01/21 08:39:13;;;;;;;14.15;2.75;;;;;;;4.13;72.92;103576.69;7388324;19;20643;-66
2022/01/21 08:41:40;;;;;;;9.18;2.95;;;;;;;4.13;72.61;103570.63;7389495;19;20346;-67
2022/01/21 08:44:07;;;;;;;10.48;3.30;;;;;;;4.15;72.93;103579.25;7388295;19;20007;-67
2022/01/21 08:46:34;;;;;;;9.63;2.85;;;;;;;4.13;72.88;103575.81;7388054;19;20464;-67
2022/01/21 08:49:07;;;;;;;10.60;3.10;;;;;;;4.16;73.06;103568.81;7390086;19;20448;-68
2022/01/21 08:51:49;;;;;;;21.38;5.40;;;;;;;4.21;72.83;103568.66;7389273;19;20130;-68
2022/01/21 08:54:17;;;;;;;16.38;3.95;;;;;;;4.24;73.02;103571.16;7389369;19;20019;-66
2022/01/21 08:56:46;;;;;;;14.10;3.35;;;;;;;4.27;72.94;103561.50;7393376;19;20015;-68
2022/01/21 08:59:13;;;;;;;16.40;3.63;;;;;;;4.29;72.82;103564.06;7393448;19;20014;-66
2022/01/21 09:01:40;;;;;;;11.32;3.80;;;;;;;4.32;72.53;103561.38;7390956;19;20054;-67
2022/01/21 09:04:07;;;;;;;7.30;3.17;;;;;;;4.36;72.69;103569.97;7388730;19;20019;-68
2022/01/21 09:06:33;;;;;;;9.18;3.47;;;;;;;4.36;72.92;103563.00;7400720;19;20018;-68
2022/01/21 09:09:01;;;;;;;14.05;3.90;;;;;;;4.38;72.75;103563.81;7397001;19;20015;-67
2022/01/21 09:11:28;;;;;;;12.85;3.83;;;;;;;4.41;73.40;103550.69;7395706;19;20031;-66
2022/01/21 09:13:56;;;;;;;18.40;4.20;;;;;;;4.47;72.76;103549.66;7397698;19;20014;-68
2022/01/21 09:16:26;;;;;;;19.55;4.97;;;;;;;4.81;83.72;103560.78;7400622;19;20017;-66
2022/01/21 09:19:02;;;;;;;12.45;4.10;;;;;;;4.93;79.63;103552.53;7397196;19;20018;-68
2022/01/21 09:21:33;;;;;;;14.30;4.25;;;;;;;4.98;74.82;103549.78;7395754;19;20032;-66
2022/01/21 09:24:00;;;;;;;13.23;4.88;;;;;;;4.99;73.74;103546.28;7397795;19;20022;-67
2022/01/21 09:26:31;;;;;;;18.73;8.38;;;;;;;5.00;73.38;103545.38;7396728;19;20025;-67
2022/01/21 09:29:00;;;;;;;12.48;4.38;;;;;;;4.94;72.44;103540.34;7395918;19;20007;-67
2022/01/21 09:31:27;;;;;;;12.25;4.18;;;;;;;4.92;71.93;103544.78;7396053;19;20018;-67
2022/01/21 09:34:14;;;;;;;10.75;5.47;;;;;;;4.95;72.69;103536.84;7395666;19;20017;-67
2022/01/21 09:36:42;;;;;;;14.05;4.82;;;;;;;5.00;72.83;103533.19;7396442;19;20021;-67
2022/01/21 09:39:10;;;;;;;13.50;4.43;;;;;;;5.03;72.63;103542.66;7392513;19;20031;-66
2022/01/21 09:41:43;;;;;;;13.63;5.72;;;;;;;5.09;72.93;103539.84;7395397;19;20440;-67
2022/01/21 09:44:16;;;;;;;9.30;4.50;;;;;;;5.16;72.98;103526.56;7395669;19;20015;-67
2022/01/21 09:46:50;;;;;;;12.43;6.00;;;;;;;5.27;72.22;103534.06;7397538;19;20014;-67
2022/01/21 09:49:26;;;;;;;20.00;7.00;;;;;;;5.34;73.77;103529.44;7399284;19;20441;-66
2022/01/21 09:51:59;;;;;;;11.63;4.22;;;;;;;5.39;71.29;103536.22;7394767;19;20010;-67
2022/01/21 09:54:31;;;;;;;12.88;4.55;;;;;;;5.41;71.43;103523.13;7394305;19;20034;-66
2022/01/21 09:56:59;;;;;;;14.82;4.68;;;;;;;5.44;70.25;103520.41;7396240;19;20121;-68
2022/01/21 09:59:29;;;;;;;11.90;4.20;;;;;;;5.50;70.55;103528.03;7395744;19;20015;-67
2022/01/21 10:02:00;;;;;;;12.50;5.35;;;;;;;5.56;70.40;103527.81;7395599;19;20011;-66
2022/01/21 10:04:32;;;;;;;12.60;5.13;;;;;;;5.64;69.95;103540.63;7394662;19;20566;-68
2022/01/21 10:07:00;;;;;;;14.93;5.82;;;;;;;5.69;69.86;103536.09;7394791;19;20082;-66
2022/01/21 10:09:28;;;;;;;17.30;4.63;;;;;;;5.73;71.10;103546.38;7396470;19;20354;-69
2022/01/21 10:11:57;;;;;;;18.85;7.20;;;;;;;5.76;70.89;103540.19;7396223;19;20030;-67
2022/01/21 10:14:29;;;;;;;21.92;5.50;;;;;;;5.81;70.31;103540.88;7394524;19;20468;-69
2022/01/21 10:16:58;;;;;;;14.68;4.25;;;;;;;5.84;69.67;103538.16;7393898;19;20344;-68
2022/01/21 10:19:52;;;;;;;13.68;5.60;;;;;;;5.89;69.27;103544.13;7394265;19;20015;-66
2022/01/21 10:22:28;;;;;;;19.42;5.88;;;;;;;5.95;69.10;103552.56;7394464;19;20106;-67
2022/01/21 10:25:06;;;;;;;15.57;4.45;;;;;;;6.00;68.75;103562.84;7397176;19;20018;-68
2022/01/21 10:27:41;;;;;;;14.48;4.20;;;;;;;6.05;68.83;103560.06;7395506;19;20010;-66
2022/01/21 10:30:22;;;;;;;12.30;5.50;;;;;;;6.09;68.91;103566.91;7395857;19;20029;-67
2022/01/21 10:32:54;;;;;;;12.45;5.25;;;;;;;6.12;68.52;103557.19;7390786;19;20017;-68
2022/01/21 10:35:40;;;;;;;19.20;5.70;;;;;;;6.17;68.34;103562.25;7393437;19;20455;-68
2022/01/21 10:38:31;;;;;;;10.48;4.35;;;;;;;6.16;68.68;103556.16;7391269;19;20024;-67
2022/01/21 10:41:04;;;;;;;14.88;4.90;;;;;;;6.13;68.33;103552.81;7395258;19;20011;-66
2022/01/21 10:43:32;;;;;;;19.73;5.20;;;;;;;6.16;68.32;103547.47;7393302;19;20013;-67
2022/01/21 10:46:18;;;;;;;12.35;5.05;;;;;;;6.14;68.28;103544.91;7392428;19;20014;-68
2022/01/21 10:49:06;;;;;;;18.63;5.20;;;;;;;6.17;68.44;103550.03;7393494;19;20019;-68
2022/01/21 10:51:50;;;;;;;12.77;5.78;;;;;;;6.17;68.80;103543.94;7395932;19;20026;-67
2022/01/21 10:54:30;;;;;;;13.68;5.05;;;;;;;6.19;68.70;103535.16;7396251;19;20013;-66
2022/01/21 10:57:05;;;;;;;18.92;6.55;;;;;;;6.22;70.39;103544.63;7395990;19;20003;-67
2022/01/21 10:59:54;;;;;;;14.60;6.40;;;;;;;6.26;71.82;103548.81;7395905;19;20006;-67
2022/01/21 11:02:48;;;;;;;23.70;8.48;;;;;;;6.22;69.34;103553.31;7396563;19;20015;-66
2022/01/21 11:05:24;;;;;;;16.60;5.45;;;;;;;6.26;69.46;103554.06;7394459;19;20365;-68
2022/01/21 11:08:05;;;;;;;17.95;6.30;;;;;;;6.29;69.08;103548.72;7396298;19;20017;-66
2022/01/21 11:10:32;;;;;;;16.98;5.28;;;;;;;6.31;68.58;103545.13;7393068;19;20012;-67
2022/01/21 11:13:00;;;;;;;10.82;4.68;;;;;;;6.31;68.44;103544.28;7391842;19;20031;-67
2022/01/21 11:15:48;;;;;;;19.17;5.80;;;;;;;6.31;68.02;103549.50;7390223;19;20022;-67
2022/01/21 11:18:52;;;;;;;23.48;7.78;;;;;;;6.32;68.44;103545.97;7392727;19;20042;-68
2022/01/21 11:21:21;;;;;;;20.48;7.03;;;;;;;6.36;68.55;103550.19;7396685;19;20088;-66
2022/01/21 11:23:48;;;;;;;15.95;5.32;;;;;;;6.39;68.33;103544.84;7392245;19;20006;-67
2022/01/21 11:26:18;;;;;;;16.83;5.50;;;;;;;6.40;68.37;103541.31;7395183;19;20022;-66
2022/01/21 11:28:49;;;;;;;12.73;4.57;;;;;;;6.44;68.69;103542.91;7388567;19;20034;-68
2022/01/21 11:31:21;;;;;;;12.63;4.32;;;;;;;6.42;68.18;103536.88;7393216;19;20086;-68
2022/01/21 11:34:08;;;;;;;15.50;4.70;;;;;;;6.40;67.94;103533.47;7392032;19;20021;-67
2022/01/21 11:36:35;;;;;;;17.00;5.43;;;;;;;6.38;67.79;103533.53;7396287;19;20466;-67
2022/01/21 11:39:04;;;;;;;16.17;6.45;;;;;;;6.39;68.40;103529.16;7389077;19;20021;-68
2022/01/21 11:41:35;;;;;;;15.95;4.63;;;;;;;6.43;68.45;103528.13;7391870;19;20011;-67
2022/01/21 11:48:00;;;;;;;12.40;4.55;;;;;;;6.45;68.77;103518.44;7391401;19;19999;-67
2022/01/21 11:50:35;;;;;;;14.05;4.97;;;;;;;6.48;68.90;103522.72;7393154;19;20015;-68
2022/01/21 11:53:07;;;;;;;14.13;4.50;;;;;;;6.48;68.69;103523.56;7387652;19;20453;-67
2022/01/21 11:55:52;;;;;;;12.02;4.68;;;;;;;6.52;68.56;103516.44;7391294;19;20015;-68
2022/01/21 11:58:22;;;;;;;14.13;6.38;;;;;;;6.55;68.78;103514.59;7393674;19;20031;-67
2022/01/21 12:00:52;;;;;;;10.40;4.57;;;;;;;6.56;68.91;103518.03;7390197;19;20014;-68
2022/01/21 12:03:23;;;;;;;14.35;4.78;;;;;;;6.57;68.62;103511.91;7391388;19;20475;-67
2022/01/21 12:05:50;;;;;;;17.52;5.13;;;;;;;6.57;68.51;103512.75;7392879;19;20023;-67
2022/01/21 12:08:59;;;;;;;17.30;4.55;;;;;;;6.57;68.71;103510.13;7395077;19;20019;-66
2022/01/21 12:11:37;;;;;;;13.93;4.38;;;;;;;6.61;69.27;103508.25;7391822;19;20018;-67
2022/01/21 12:14:38;;;;;;;14.00;3.92;;;;;;;6.64;69.83;103508.13;7392089;19;20051;-67
2022/01/21 12:17:20;;;;;;;26.17;4.82;;;;;;;6.66;69.09;103501.06;7392910;19;20017;-67
2022/01/21 12:19:49;;;;;;;15.65;3.95;;;;;;;6.69;69.18;103499.19;7391441;19;20018;-67
2022/01/21 12:22:19;;;;;;;17.85;4.13;;;;;;;6.72;69.08;103498.22;7389644;19;20007;-67
2022/01/21 12:24:55;;;;;;;12.57;4.28;;;;;;;6.75;69.32;103498.09;7391633;19;20014;-67
2022/01/21 12:27:25;;;;;;;15.18;5.28;;;;;;;6.77;69.87;103491.88;7393885;19;20097;-68
2022/01/21 12:30:23;;;;;;;15.88;4.63;;;;;;;6.79;70.46;103476.97;7388436;19;20459;-67
2022/01/21 12:32:55;;;;;;;12.68;3.83;;;;;;;6.83;70.76;103480.31;7391994;19;20424;-67
2022/01/21 12:35:23;;;;;;;15.70;4.30;;;;;;;6.85;68.79;103481.13;7391170;19;20070;-67
2022/01/21 12:39:05;;;;;;;14.15;3.75;;;;;;;6.87;68.35;103476.66;7388827;19;20007;-67
2022/01/21 12:40:58;;;;;;;15.32;3.75;;;;;;;6.90;68.54;103475.69;7398331;19;20011;-68
2022/01/21 12:43:42;;;;;;;15.30;3.05;;;;;;;6.93;67.53;103471.16;7394005;19;20022;-67
2022/01/21 12:46:14;;;;;;;11.27;3.40;;;;;;;6.95;67.81;103464.13;7397825;19;20081;-67